Time;durP1;ratioP1;P1;durP2;ratioP2;P2;SDS_P1;SDS_P2;PMS_P1;PMS_P2;Temp;Humidity;BMP_temperature;BMP_pressure;BME280_temperature;BME280_humidity;BME280_pressure;Samples;Min_cycle;Max_cycle;Signal;HPM_P1;HPM_P2
2023/02/15 00:00:10;;;;;;;290.52;20.73;;;3.40;62.90;;;-1.66;100.00;96770.88;4955017;28;20025;-57
2023/02/15 00:02:36;;;;;;;332.05;21.45;;;3.50;62.90;;;-1.68;100.00;96766.78;4968893;28;20037;-56
2023/02/15 00:05:08;;;;;;;382.95;24.27;;;3.50;62.80;;;-1.74;100.00;96763.00;4947479;28;20026;-54
2023/02/15 00:07:34;;;;;;;440.33;26.27;;;3.50;62.80;;;-1.76;100.00;96759.72;4943472;28;20081;-54
2023/02/15 00:10:07;;;;;;;447.90;27.55;;;3.50;62.80;;;-1.79;100.00;96765.25;4956013;28;20026;-56
2023/02/15 00:12:39;;;;;;;445.08;25.05;;;3.50;62.90;;;-2.01;100.00;96761.41;4945002;28;20050;-54
2023/02/15 00:15:08;;;;;;;364.63;21.27;;;3.40;62.80;;;-2.04;100.00;96761.72;4928881;29;20397;-52
2023/02/15 00:17:34;;;;;;;416.63;27.77;;;3.40;62.80;;;-2.01;100.00;96765.81;4953444;28;20049;-56
2023/02/15 00:20:07;;;;;;;255.48;20.35;;;3.30;62.70;;;-2.00;100.00;96770.91;4970702;28;20384;-52
2023/02/15 00:22:36;;;;;;;331.75;24.27;;;3.30;62.90;;;-1.93;100.00;96771.09;4966701;28;20039;-51
2023/02/15 00:25:01;;;;;;;338.17;23.02;;;3.30;62.90;;;-1.93;100.00;96765.88;4952272;28;20026;-57
2023/02/15 00:27:30;;;;;;;124.32;15.30;;;3.30;63.00;;;-2.01;100.00;96769.25;4968943;28;20389;-55
2023/02/15 00:29:56;;;;;;;212.48;17.95;;;3.30;62.90;;;-1.97;100.00;96765.38;4944445;28;20053;-52
2023/02/15 00:32:22;;;;;;;116.20;14.45;;;3.30;62.90;;;-2.03;100.00;96758.16;4944390;29;20117;-53
2023/02/15 00:34:57;;;;;;;111.97;14.52;;;3.30;62.90;;;-2.01;100.00;96763.22;4943469;28;20023;-52
2023/02/15 00:37:28;;;;;;;49.58;12.20;;;3.30;63.00;;;-2.02;100.00;96753.75;4958940;28;20031;-58
2023/02/15 00:39:57;;;;;;;51.70;13.68;;;3.30;63.00;;;-2.03;100.00;96767.78;4951793;28;20046;-55
2023/02/15 00:42:26;;;;;;;47.08;12.23;;;3.30;62.90;;;-2.10;100.00;96765.81;4957756;28;20042;-57
2023/02/15 00:44:52;;;;;;;35.80;11.63;;;3.20;62.90;;;-2.09;100.00;96764.00;4970531;28;20115;-52
2023/02/15 00:47:21;;;;;;;45.58;12.73;;;3.20;62.80;;;-2.14;100.00;96759.25;4964958;28;20124;-57
2023/02/15 00:49:46;;;;;;;127.63;16.27;;;3.20;62.80;;;-2.15;100.00;96764.63;4986974;28;20281;-57
2023/02/15 00:52:12;;;;;;;85.30;14.35;;;3.20;62.80;;;-2.15;100.00;96769.84;4984040;28;20511;-58
2023/02/15 00:54:38;;;;;;;42.60;11.23;;;3.20;62.70;;;-2.19;100.00;96771.97;4985514;28;20017;-55
2023/02/15 00:57:17;;;;;;;49.65;12.10;;;3.10;62.60;;;-2.22;100.00;96768.84;4975847;28;20026;-55
2023/02/15 00:59:43;;;;;;;82.25;12.75;;;3.10;62.80;;;-2.24;100.00;96769.00;4989011;28;20545;-55
2023/02/15 01:02:08;;;;;;;64.47;12.93;;;3.10;62.70;;;-2.26;100.00;96762.28;4972326;28;20034;-52
2023/02/15 01:04:40;;;;;;;105.53;14.32;;;3.10;62.80;;;-2.28;100.00;96759.03;4991143;28;20073;-53
2023/02/15 01:07:09;;;;;;;67.85;13.90;;;3.00;62.80;;;-2.28;100.00;96761.63;4991305;28;20021;-58
2023/02/15 01:09:38;;;;;;;99.05;14.18;;;3.00;62.90;;;-2.35;100.00;96761.41;4992478;28;20034;-55
2023/02/15 01:12:04;;;;;;;71.22;12.60;;;3.00;62.90;;;-2.41;100.00;96767.28;4991874;28;20061;-58
2023/02/15 01:14:30;;;;;;;88.22;13.30;;;3.00;62.90;;;-2.45;100.00;96763.31;4980138;28;20026;-54
2023/02/15 01:16:56;;;;;;;341.60;25.50;;;2.90;62.90;;;-2.42;100.00;96766.44;4966676;28;20024;-56
2023/02/15 01:19:21;;;;;;;92.43;14.07;;;2.90;63.00;;;-2.42;100.00;96769.03;4978892;28;20116;-52
2023/02/15 01:21:47;;;;;;;82.10;14.10;;;2.90;63.00;;;-2.45;100.00;96771.97;4989108;28;20488;-53
2023/02/15 01:24:22;;;;;;;73.47;13.88;;;2.90;63.00;;;-2.45;100.00;96769.34;4994984;28;20029;-56
2023/02/15 01:26:51;;;;;;;45.10;13.82;;;2.90;63.10;;;-2.45;100.00;96769.34;4968569;28;20118;-55
2023/02/15 01:29:23;;;;;;;42.85;12.40;;;2.80;63.00;;;-2.47;100.00;96773.94;4963697;28;20374;-56
2023/02/15 01:31:49;;;;;;;42.83;12.30;;;2.90;63.00;;;-2.45;100.00;96769.34;4984523;28;20100;-52
2023/02/15 01:34:14;;;;;;;48.45;12.55;;;2.80;63.00;;;-2.42;100.00;96769.03;4977521;28;20568;-57
2023/02/15 01:36:42;;;;;;;54.38;11.90;;;2.80;63.10;;;-2.46;100.00;96762.50;4961132;28;20026;-55
2023/02/15 01:39:10;;;;;;;44.47;11.98;;;2.80;63.10;;;-2.46;100.00;96761.69;4992087;28;20544;-55
2023/02/15 01:41:36;;;;;;;80.35;13.52;;;2.80;63.10;;;-2.49;100.00;96760.22;4974320;28;20053;-55
2023/02/15 01:44:23;;;;;;;121.32;14.32;;;2.80;63.10;;;-2.56;100.00;96762.63;4980962;28;20481;-58
2023/02/15 01:46:53;;;;;;;81.28;13.35;;;2.80;63.10;;;-2.55;100.00;96755.59;4946920;28;20029;-54
2023/02/15 01:49:27;;;;;;;114.72;13.70;;;2.80;63.10;;;-2.57;100.00;96755.78;4947266;28;20022;-55
2023/02/15 01:51:53;;;;;;;117.25;15.43;;;2.70;63.10;;;-2.58;100.00;96753.31;4968090;28;20030;-54
2023/02/15 01:54:35;;;;;;;84.63;12.25;;;2.70;63.10;;;-2.61;100.00;96751.81;4935199;28;20046;-58
2023/02/15 01:57:13;;;;;;;69.68;11.70;;;2.70;63.20;;;-2.61;100.00;96751.00;4932762;29;20133;-58
2023/02/15 01:59:51;;;;;;;74.28;12.65;;;2.60;63.20;;;-2.66;100.00;96754.09;4944765;28;20023;-53
2023/02/15 02:02:24;;;;;;;57.80;12.15;;;2.60;63.20;;;-2.68;100.00;96753.41;4955196;28;20190;-54
2023/02/15 02:05:06;;;;;;;62.13;11.07;;;2.60;63.20;;;-2.73;100.00;96755.63;4940185;28;20031;-54
2023/02/15 02:07:43;;;;;;;28.90;11.35;;;2.60;63.20;;;-2.76;100.00;96749.91;4962592;28;20107;-52
2023/02/15 02:10:16;;;;;;;36.80;10.95;;;2.60;63.20;;;-2.75;100.00;96746.34;4946504;28;20544;-53
2023/02/15 02:12:49;;;;;;;360.15;23.23;;;2.60;63.20;;;-2.77;100.00;96758.72;4955439;28;20034;-54
2023/02/15 02:15:29;;;;;;;112.78;13.75;;;2.60;63.20;;;-2.75;100.00;96752.38;4948251;28;20019;-54
2023/02/15 02:18:28;;;;;;;103.70;12.38;;;2.50;63.20;;;-2.80;100.00;96747.59;4950488;28;20034;-52
2023/02/15 02:21:30;;;;;;;168.43;15.48;;;2.50;63.30;;;-2.80;100.00;96746.78;4935502;28;20023;-55
2023/02/15 02:25:28;;;;;;;168.40;15.50;;;2.60;63.40;;;-2.78;100.00;96739.66;4964672;28;20141;-58
2023/02/15 02:28:56;;;;;;;114.75;12.80;;;2.50;63.30;;;-2.75;100.00;96741.13;4897767;28;20138;-56
2023/02/15 02:32:15;;;;;;;91.57;12.82;;;2.50;63.40;;;-2.77;100.00;96743.88;4954388;28;20530;-57
2023/02/15 02:35:33;;;;;;;158.73;14.65;;;2.50;63.50;;;-2.77;100.00;96743.88;4962406;28;20567;-56
2023/02/15 02:38:28;;;;;;;152.23;14.57;;;2.50;63.50;;;-2.74;100.00;96742.78;4955282;28;20100;-57
2023/02/15 02:41:52;;;;;;;157.13;15.63;;;2.50;64.40;;;-2.72;100.00;96746.88;4960203;28;20026;-50
2023/02/15 02:45:04;;;;;;;138.38;13.45;;;2.50;63.60;;;-2.69;100.00;96745.75;4983104;23;20049;-54
2023/02/15 02:48:09;;;;;;;93.43;12.60;;;2.50;63.60;;;-2.71;100.00;96745.88;4994802;28;20041;-53
2023/02/15 02:50:41;;;;;;;103.28;15.45;;;2.50;63.60;;;-2.66;100.00;96754.09;4990920;28;20121;-54
2023/02/15 02:53:11;;;;;;;98.68;13.57;;;2.50;63.60;;;-2.64;100.00;96751.31;4998299;28;20045;-53
2023/02/15 02:55:53;;;;;;;85.13;13.07;;;2.50;63.60;;;-2.63;100.00;96748.56;5006338;28;20035;-54
2023/02/15 02:58:41;;;;;;;189.13;16.00;;;2.60;63.80;;;-2.60;100.00;96737.81;5007268;28;20109;-53
2023/02/15 03:01:52;;;;;;;94.53;13.65;;;2.60;64.60;;;-2.55;100.00;96739.94;4992364;28;20029;-52
2023/02/15 03:04:43;;;;;;;91.53;13.77;;;2.60;63.80;;;-2.57;100.00;96737.50;4958862;28;20055;-54
2023/02/15 03:07:22;;;;;;;153.65;14.77;;;2.60;63.90;;;-2.58;100.00;96748.09;4990466;28;20452;-52
2023/02/15 03:09:58;;;;;;;169.93;15.23;;;2.70;63.80;;;-2.56;100.00;96746.16;4975358;28;20120;-53
2023/02/15 03:12:37;;;;;;;94.25;14.80;;;2.70;63.80;;;-2.54;100.00;96740.75;4993175;28;20029;-53
2023/02/15 03:16:25;;;;;;;87.72;14.45;;;2.70;63.80;;;-2.53;100.00;96735.41;4992736;28;20029;-53
2023/02/15 03:18:26;;;;;;;148.38;14.57;;;2.80;63.90;;;-2.57;100.00;96741.88;4995667;28;20021;-57
2023/02/15 03:20:58;;;;;;;106.40;12.30;;;2.70;63.70;;;-2.58;100.00;96748.91;4992990;28;20116;-57
2023/02/15 03:23:29;;;;;;;131.90;14.32;;;2.70;63.60;;;-2.56;100.00;96748.75;4991203;28;20021;-55
2023/02/15 03:26:22;;;;;;;106.63;13.85;;;2.70;64.30;;;-2.59;100.00;96744.66;4992840;28;20510;-54
2023/02/15 03:29:01;;;;;;;107.72;13.63;;;2.80;64.00;;;-2.59;100.00;96736.03;4976633;28;20124;-54
2023/02/15 03:31:37;;;;;;;114.07;13.98;;;2.70;63.60;;;-2.58;100.00;96740.25;5010044;28;20108;-53
2023/02/15 03:34:11;;;;;;;137.75;15.85;;;2.70;63.70;;;-2.65;100.00;96744.47;4991262;28;20037;-53
2023/02/15 03:36:50;;;;;;;66.30;12.75;;;2.80;63.70;;;-2.68;100.00;96742.16;4992666;28;20407;-53
2023/02/15 03:39:26;;;;;;;105.60;14.48;;;2.70;63.60;;;-2.64;100.00;96743.47;4992162;28;20033;-53
2023/02/15 03:42:18;;;;;;;240.38;19.13;;;2.70;63.70;;;-2.61;100.00;96746.59;4991983;28;20052;-54
2023/02/15 03:45:11;;;;;;;110.32;13.50;;;2.70;63.80;;;-2.68;100.00;96742.97;4991814;28;20037;-54
2023/02/15 03:47:46;;;;;;;117.55;12.77;;;2.70;63.80;;;-2.86;100.00;96750.81;4991136;28;20052;-53
2023/02/15 03:53:21;;;;;;;;;;;2.60;63.80;;;-3.06;100.00;96746.78;5008880;28;20024;-53
2023/02/15 03:55:55;;;;;;;77.38;11.75;;;2.50;63.30;;;-3.11;100.00;96744.59;4995251;28;19913;-55
2023/02/15 04:01:57;;;;;;;158.30;15.63;;;2.40;63.40;;;-3.16;100.00;96754.69;5003954;28;20044;-55
2023/02/15 04:04:41;;;;;;;134.55;14.65;;;2.30;63.50;;;-3.19;100.00;96754.16;4984778;28;20120;-53
2023/02/15 04:07:10;;;;;;;140.05;14.30;;;2.30;63.60;;;-3.34;100.00;96751.25;4999641;28;20033;-53
2023/02/15 04:12:21;;;;;;;119.15;13.85;;;2.20;63.40;;;-3.60;100.00;96743.38;5001889;28;20036;-53
2023/02/15 04:17:37;;;;;;;152.73;15.57;;;2.00;63.40;;;-3.78;100.00;96748.56;5005936;28;20025;-52
2023/02/15 04:25:38;;;;;;;25.50;9.43;;;1.70;63.20;;;-3.78;100.00;96744.16;4980184;28;20028;-52
2023/02/15 04:28:07;;;;;;;20.83;9.60;;;1.70;63.30;;;-3.78;100.00;96743.34;5007929;28;20104;-53
2023/02/15 04:30:33;;;;;;;16.75;7.82;;;1.60;63.40;;;-3.80;100.00;96746.06;4998385;28;20025;-52
2023/02/15 04:32:59;;;;;;;19.92;9.15;;;1.60;63.50;;;-3.82;100.00;96742.81;4983320;28;20648;-54
2023/02/15 04:35:25;;;;;;;19.23;9.48;;;1.50;63.50;;;-3.85;100.00;96742.31;4987087;28;20447;-52
2023/02/15 04:37:51;;;;;;;19.38;9.73;;;1.40;63.40;;;-3.90;100.00;96734.09;4978535;28;20140;-52
2023/02/15 04:40:27;;;;;;;19.30;9.18;;;1.40;63.50;;;-3.93;100.00;96740.41;4993585;28;20076;-56
2023/02/15 04:42:53;;;;;;;16.90;8.80;;;1.40;63.60;;;-3.98;100.00;96735.66;5007771;28;20029;-55
2023/02/15 04:45:25;;;;;;;18.65;8.23;;;1.30;63.60;;;-4.01;100.00;96735.94;5012148;28;20045;-52
2023/02/15 04:47:53;;;;;;;15.90;8.83;;;1.20;63.60;;;-4.08;100.00;96734.88;5010364;28;20052;-53
2023/02/15 04:50:22;;;;;;;17.55;8.77;;;1.20;63.70;;;-4.11;100.00;96734.34;4993331;28;20053;-55
2023/02/15 04:52:51;;;;;;;15.90;8.63;;;1.10;63.70;;;-4.16;100.00;96737.38;4988439;28;20032;-51
2023/02/15 04:55:17;;;;;;;17.50;8.15;;;1.10;64.50;;;-4.20;100.00;96733.41;4987483;28;20029;-51
2023/02/15 04:57:49;;;;;;;16.13;7.72;;;1.10;63.70;;;-4.26;100.00;96734.84;4998685;28;20357;-52
2023/02/15 05:00:24;;;;;;;15.25;7.00;;;1.00;63.70;;;-4.30;100.00;96735.25;5006435;28;20029;-53
2023/02/15 05:02:50;;;;;;;18.10;8.25;;;1.00;63.70;;;-4.32;100.00;96740.63;4987249;28;20041;-53
2023/02/15 05:05:22;;;;;;;15.82;8.65;;;1.00;63.70;;;-4.36;100.00;96735.81;5010560;28;20032;-56
2023/02/15 05:07:54;;;;;;;15.10;8.50;;;0.90;63.80;;;-4.42;100.00;96732.84;5012255;28;20026;-51
2023/02/15 05:10:20;;;;;;;16.57;9.00;;;0.80;63.70;;;-4.39;100.00;96730.91;5007719;28;20086;-51
2023/02/15 05:12:46;;;;;;;16.70;8.32;;;0.90;63.80;;;-4.42;100.00;96730.25;5010412;28;20029;-49
2023/02/15 05:15:12;;;;;;;16.88;9.40;;;0.80;63.80;;;-4.44;100.00;96719.16;4993187;28;20024;-53
2023/02/15 05:17:41;;;;;;;19.40;9.32;;;0.80;64.60;;;-4.47;100.00;96721.22;5008508;28;20025;-51
2023/02/15 05:20:07;;;;;;;17.50;9.05;;;0.80;63.90;;;-4.51;100.00;96731.09;5001715;28;20076;-51
2023/02/15 05:22:33;;;;;;;16.48;8.50;;;0.70;63.80;;;-4.55;100.00;96729.72;5008872;28;20380;-54
2023/02/15 05:30:34;;;;;;;17.45;8.43;;;0.60;63.80;;;-4.70;100.00;96729.38;4981104;28;20027;-50
2023/02/15 05:33:00;;;;;;;12.55;7.35;;;0.60;63.80;;;-4.74;100.00;96727.19;4982366;28;20419;-53
2023/02/15 05:35:32;;;;;;;13.85;7.82;;;0.60;63.90;;;-4.77;100.00;96724.88;5006523;28;20029;-55
2023/02/15 05:37:58;;;;;;;16.33;8.27;;;0.50;63.90;;;-4.81;100.00;96729.53;4993944;28;20033;-50
2023/02/15 05:40:27;;;;;;;13.60;7.68;;;0.50;63.90;;;-4.85;100.00;96723.00;4977914;28;20059;-52
2023/02/15 05:42:59;;;;;;;15.20;7.68;;;0.50;63.90;;;-4.87;100.00;96724.91;4993508;28;20495;-51
2023/02/15 05:45:30;;;;;;;17.38;8.38;;;0.40;63.80;;;-4.92;100.00;96727.94;5011486;28;20120;-55
2023/02/15 05:47:58;;;;;;;15.93;7.83;;;0.40;63.90;;;-4.95;100.00;96727.38;5006122;28;20056;-55
2023/02/15 05:50:26;;;;;;;15.13;8.50;;;0.40;63.90;;;-5.01;100.00;96731.38;5004402;28;20022;-53
2023/02/15 05:52:53;;;;;;;12.77;7.22;;;0.40;63.90;;;-5.04;100.00;96726.44;4986935;28;20025;-55
2023/02/15 05:55:28;;;;;;;15.90;8.93;;;0.30;63.80;;;-5.09;100.00;96727.81;4994036;28;20072;-56
2023/02/15 05:57:54;;;;;;;12.73;7.57;;;0.30;63.90;;;-5.13;100.00;96727.28;4995031;28;20075;-54
2023/02/15 06:00:20;;;;;;;15.57;8.55;;;0.30;64.70;;;-5.09;100.00;96733.84;5010958;28;20017;-53
2023/02/15 06:02:48;;;;;;;15.48;8.10;;;0.20;63.90;;;-5.08;100.00;96734.66;4995721;28;20072;-56
2023/02/15 06:05:14;;;;;;;15.75;7.40;;;0.20;63.90;;;-5.14;100.00;96738.63;5009876;28;20112;-57
2023/02/15 06:07:46;;;;;;;13.32;7.13;;;0.20;64.00;;;-5.16;100.00;96740.56;5011015;28;20116;-56
2023/02/15 06:10:12;;;;;;;14.63;8.10;;;0.20;64.00;;;-5.15;100.00;96744.78;4982992;28;20032;-52
2023/02/15 06:12:40;;;;;;;16.00;8.60;;;0.20;64.00;;;-5.15;100.00;96742.19;5010793;28;20427;-56
2023/02/15 06:15:09;;;;;;;15.27;7.80;;;0.10;63.90;;;-5.16;100.00;96751.75;4984760;28;20117;-55
2023/02/15 06:17:35;;;;;;;17.35;8.65;;;0.10;63.90;;;-5.19;100.00;96751.22;4998886;28;20033;-57
2023/02/15 06:20:02;;;;;;;16.45;8.35;;;0.10;63.90;;;-5.23;100.00;96755.88;4991446;28;20029;-57
2023/02/15 06:22:28;;;;;;;16.13;9.25;;;0.10;64.00;;;-5.28;100.00;96752.84;4983330;28;20060;-55
2023/02/15 06:24:54;;;;;;;12.68;8.18;;;0.10;63.90;;;-5.31;100.00;96760.09;5004873;28;20434;-56
2023/02/15 06:27:20;;;;;;;16.45;7.60;;;0.00;63.90;;;-5.38;100.00;96763.25;4991138;28;20028;-52
2023/02/15 06:29:49;;;;;;;13.68;7.63;;;0.00;63.90;;;-5.42;100.00;96761.03;4994859;28;20026;-54
2023/02/15 06:32:14;;;;;;;16.70;7.72;;;0.00;63.90;;;-5.38;100.00;96763.25;4997188;28;20430;-56
2023/02/15 06:34:40;;;;;;;14.10;8.40;;;0.00;63.90;;;-5.34;100.00;96766.41;4991106;28;20025;-54
2023/02/15 06:37:07;;;;;;;17.90;8.77;;;0.00;64.00;;;-5.30;100.00;96769.53;4988671;28;20121;-55
2023/02/15 06:39:34;;;;;;;21.15;9.90;;;0.00;64.00;;;-5.28;100.00;96772.81;4992852;28;20027;-55
2023/02/15 06:42:00;;;;;;;19.98;10.07;;;0.00;64.00;;;-5.28;100.00;96776.25;5003087;28;20033;-55
2023/02/15 06:44:26;;;;;;;23.77;11.52;;;0.00;64.10;;;-5.22;100.00;96770.50;4986341;28;20044;-55
2023/02/15 06:46:52;;;;;;;25.83;11.35;;;0.10;64.30;;;-5.19;100.00;96769.41;4982873;28;20083;-52
2023/02/15 06:49:18;;;;;;;30.30;11.27;;;0.10;64.30;;;-5.17;100.00;96770.91;4987791;28;20030;-55
2023/02/15 06:51:43;;;;;;;98.90;14.68;;;0.20;64.40;;;-5.10;100.00;96770.38;4986888;28;20021;-56
2023/02/15 06:54:10;;;;;;;29.88;10.63;;;0.20;64.30;;;-5.08;100.00;96773.63;4982441;28;20033;-55
2023/02/15 06:56:38;;;;;;;27.45;10.93;;;0.20;64.30;;;-5.05;100.00;96774.16;4981213;28;20025;-57
2023/02/15 06:59:04;;;;;;;30.08;10.88;;;0.30;64.30;;;-5.01;100.00;96772.13;4982251;28;20049;-56
2023/02/15 07:01:30;;;;;;;66.55;12.80;;;0.30;64.30;;;-4.98;100.00;96772.69;4974636;28;20399;-51
2023/02/15 07:03:56;;;;;;;77.80;12.50;;;0.40;64.30;;;-4.95;100.00;96779.34;4975289;28;20026;-53
2023/02/15 07:06:24;;;;;;;26.05;12.07;;;0.40;64.30;;;-4.94;100.00;96773.22;4977888;28;20034;-54
2023/02/15 07:08:50;;;;;;;23.35;11.55;;;0.40;64.20;;;-4.91;100.00;96780.75;4983651;28;20029;-57
2023/02/15 07:14:00;;;;;;;18.42;9.13;;;0.40;64.20;;;-4.89;100.00;96778.81;4982497;28;20048;-54
2023/02/15 07:16:26;;;;;;;73.53;13.40;;;0.50;64.20;;;-4.86;100.00;96781.13;4985669;28;20026;-53
2023/02/15 07:18:55;;;;;;;32.72;13.25;;;0.50;64.20;;;-4.84;100.00;96771.41;4987174;28;20461;-53
2023/02/15 07:21:27;;;;;;;26.80;11.50;;;0.60;64.30;;;-4.83;100.00;96764.44;4987578;28;20026;-55
2023/02/15 07:24:00;;;;;;;25.77;11.57;;;0.60;64.30;;;-4.83;100.00;96767.03;4985530;28;20060;-56
2023/02/15 07:26:26;;;;;;;;;;;0.60;64.20;;;-4.83;100.00;96761.84;4997258;28;20493;-49
2023/02/15 07:28:54;;;;;;;18.92;9.75;;;0.70;64.10;;;-4.78;100.00;96759.66;4982386;28;19963;-51
2023/02/15 07:31:20;;;;;;;22.38;10.80;;;0.70;64.10;;;-4.77;100.00;96763.88;4967686;28;20022;-49
2023/02/15 07:33:48;;;;;;;20.35;9.52;;;0.70;64.10;;;-4.69;100.00;96769.19;4985665;28;20809;-54
2023/02/15 07:36:14;;;;;;;20.48;10.07;;;0.80;64.10;;;-4.57;100.00;96765.47;4967326;28;20026;-48
2023/02/15 07:38:42;;;;;;;22.92;10.98;;;0.90;64.20;;;-4.36;100.00;96769.66;4986046;28;20033;-53
2023/02/15 07:41:13;;;;;;;23.45;12.15;;;1.10;64.40;;;-4.16;100.00;96768.63;4986104;28;20397;-53
2023/02/15 07:43:43;;;;;;;24.90;10.18;;;1.30;64.40;;;-3.96;100.00;96764.13;4967290;28;20030;-54
2023/02/15 07:46:16;;;;;;;25.15;12.23;;;1.50;64.50;;;-3.82;100.00;96779.28;4975841;28;20509;-52
2023/02/15 07:48:44;;;;;;;23.52;10.90;;;1.80;64.50;;;-3.62;100.00;96774.75;4978846;28;20038;-56
2023/02/15 07:51:15;;;;;;;27.20;12.50;;;2.10;64.30;;;-3.38;100.00;96774.19;4915061;28;20065;-50
2023/02/15 07:53:42;;;;;;;28.90;12.37;;;2.40;64.10;;;-3.13;100.00;96771.81;4974713;28;20372;-53
2023/02/15 07:56:13;;;;;;;19.30;10.68;;;2.70;64.00;;;-2.99;100.00;96773.06;4975982;28;20030;-57
2023/02/15 07:58:51;;;;;;;21.67;11.32;;;2.90;63.80;;;-2.89;100.00;96774.59;4985951;28;20033;-55
2023/02/15 08:01:20;;;;;;;23.20;11.27;;;3.00;63.60;;;-2.86;100.00;96776.09;4958592;28;20045;-53
2023/02/15 08:03:49;;;;;;;21.58;10.63;;;3.10;63.50;;;-2.89;100.00;96779.00;4977338;28;20022;-53
2023/02/15 08:06:16;;;;;;;26.30;11.77;;;3.20;63.20;;;-2.88;100.00;96770.22;4990699;28;20025;-57
2023/02/15 08:08:43;;;;;;;30.48;12.20;;;3.30;63.10;;;-2.92;100.00;96768.88;4981925;28;20033;-56
2023/02/15 08:11:32;;;;;;;30.80;12.48;;;3.40;62.90;;;-2.75;100.00;96762.00;4993261;28;20061;-56
2023/02/15 08:14:14;;;;;;;27.45;12.10;;;3.50;62.80;;;-2.71;100.00;96765.94;4989753;28;20025;-55
2023/02/15 08:16:54;;;;;;;21.23;10.95;;;3.60;62.70;;;-2.61;100.00;96759.63;4990327;28;20109;-57
2023/02/15 08:19:26;;;;;;;20.67;10.43;;;3.70;62.60;;;-2.63;100.00;96761.59;4985539;28;20033;-54
2023/02/15 08:22:00;;;;;;;23.00;11.33;;;3.70;62.60;;;-2.42;100.00;96753.38;4976273;28;20038;-55
2023/02/15 08:24:34;;;;;;;27.27;12.55;;;3.90;62.40;;;-2.11;100.00;96752.91;4970593;28;20028;-55
2023/02/15 08:27:04;;;;;;;19.33;10.43;;;4.20;62.30;;;-1.84;100.00;96751.88;4973318;28;20039;-59
2023/02/15 08:29:35;;;;;;;23.30;11.48;;;4.50;62.10;;;-1.60;100.00;96742.44;4983245;28;20034;-58
2023/02/15 08:32:07;;;;;;;29.25;12.05;;;4.80;62.10;;;-1.35;100.00;96741.50;4987796;28;20188;-55
2023/02/15 08:34:39;;;;;;;22.37;11.43;;;5.20;61.80;;;-1.17;100.00;96739.56;4975435;28;20018;-57
2023/02/15 08:37:05;;;;;;;23.23;11.60;;;5.60;61.60;;;-1.06;100.00;96737.63;4985799;28;20628;-55
2023/02/15 08:39:32;;;;;;;24.27;11.60;;;5.90;61.20;;;-0.98;100.00;96750.69;4976014;28;20506;-55
2023/02/15 08:41:58;;;;;;;26.48;11.30;;;6.10;60.70;;;-0.85;100.00;96744.97;4972671;28;20060;-57
2023/02/15 08:44:24;;;;;;;19.73;10.75;;;6.30;60.40;;;-0.67;100.00;96752.63;4983775;28;20455;-52
2023/02/15 08:46:50;;;;;;;20.77;11.48;;;6.50;60.40;;;-0.53;100.00;96750.19;4979488;28;20239;-50
2023/02/15 08:49:21;;;;;;;23.65;11.23;;;6.60;60.20;;;-0.38;100.00;96749.47;4980652;28;20072;-53
2023/02/15 08:51:49;;;;;;;19.30;11.27;;;6.80;60.90;;;-0.24;99.37;96747.00;4983228;28;20388;-54
2023/02/15 08:54:21;;;;;;;25.27;12.18;;;7.10;60.00;;;-0.07;97.87;96752.16;4972524;28;20029;-54
2023/02/15 08:56:48;;;;;;;19.17;11.20;;;7.30;60.00;;;0.04;96.79;96749.19;4971390;28;20063;-53
2023/02/15 08:59:23;;;;;;;16.88;10.63;;;7.60;59.80;;;0.23;97.26;96750.59;4966971;28;20024;-53
2023/02/15 09:01:52;;;;;;;16.77;10.25;;;7.80;59.60;;;0.51;96.57;96740.44;4992430;28;20435;-58
2023/02/15 09:04:20;;;;;;;14.95;10.15;;;8.10;59.60;;;0.72;95.71;96745.03;4990193;28;20411;-50
2023/02/15 09:06:52;;;;;;;17.40;10.68;;;8.30;59.30;;;0.95;93.98;96741.63;4976290;28;20369;-50
2023/02/15 09:09:20;;;;;;;15.77;9.73;;;8.60;59.10;;;0.97;91.74;96739.63;4972644;28;20024;-48
2023/02/15 09:11:50;;;;;;;22.83;9.60;;;8.90;59.00;;;1.30;92.74;96732.31;4984735;28;20033;-49
2023/02/15 09:14:21;;;;;;;15.27;9.95;;;9.20;58.80;;;1.54;92.00;96737.34;4989816;28;20068;-47
2023/02/15 09:16:50;;;;;;;14.80;9.70;;;9.50;58.60;;;1.64;91.52;96742.31;4983600;28;20548;-49
2023/02/15 09:19:18;;;;;;;14.70;9.13;;;9.80;58.40;;;1.78;91.35;96738.88;5006378;28;20578;-53
2023/02/15 09:21:48;;;;;;;11.75;8.10;;;9.80;58.10;;;1.68;87.85;96743.59;5007397;28;20057;-48
2023/02/15 09:24:17;;;;;;;13.38;8.88;;;9.80;57.90;;;1.65;88.27;96745.75;4997767;28;20029;-52
2023/02/15 09:26:47;;;;;;;13.25;8.98;;;9.70;57.60;;;1.76;88.75;96735.63;4986385;28;20030;-47
2023/02/15 09:29:16;;;;;;;12.57;9.35;;;9.70;57.40;;;1.95;87.38;96736.09;5000415;28;20030;-49
2023/02/15 09:31:48;;;;;;;15.15;9.25;;;9.90;57.40;;;1.92;86.09;96733.81;4969588;28;20044;-48
2023/02/15 09:34:21;;;;;;;12.98;9.32;;;10.00;57.00;;;2.02;85.91;96729.91;4956876;28;20036;-48
2023/02/15 09:36:48;;;;;;;;;;;10.10;56.90;;;2.25;85.75;96728.97;4989491;28;20057;-53
2023/02/15 09:39:27;;;;;;;12.13;8.23;;;10.40;56.90;;;2.63;85.24;96720.88;4994619;28;19951;-50
2023/02/15 09:42:15;;;;;;;12.70;8.48;;;10.70;56.60;;;2.92;82.57;96720.78;4990550;28;20034;-48
2023/02/15 09:44:58;;;;;;;12.93;9.15;;;10.90;56.40;;;3.12;82.51;96717.50;4988742;28;20127;-54
2023/02/15 09:48:09;;;;;;;13.60;8.70;;;11.20;56.00;;;3.44;80.71;96714.31;4973506;28;20662;-51
2023/02/15 09:51:19;;;;;;;12.77;8.40;;;11.60;55.80;;;3.88;79.29;96721.06;4997657;28;20083;-48
2023/02/15 09:54:47;;;;;;;13.65;9.20;;;12.00;55.40;;;4.28;77.93;96726.56;4986410;28;20026;-52
2023/02/15 09:58:16;;;;;;;12.85;9.18;;;12.50;55.00;;;4.61;77.00;96725.88;4968133;28;20044;-49
2023/02/15 10:01:45;;;;;;;12.13;8.70;;;13.00;54.50;;;4.87;74.46;96715.38;5007658;28;20108;-49
2023/02/15 10:04:51;;;;;;;12.98;8.75;;;13.50;53.90;;;5.43;73.48;96721.31;4917069;29;20036;-48
2023/02/15 10:08:02;;;;;;;11.00;8.43;;;14.00;53.40;;;5.92;71.99;96722.63;4991537;28;20163;-49
2023/02/15 10:11:39;;;;;;;12.23;8.43;;;14.40;52.90;;;5.90;71.07;96725.50;5000262;28;20018;-54
2023/02/15 10:14:48;;;;;;;12.85;9.30;;;14.60;52.40;;;5.78;71.24;96729.78;4964233;28;20040;-48
2023/02/15 10:17:45;;;;;;;11.55;9.18;;;14.70;51.80;;;5.86;70.78;96719.00;5003749;28;20115;-49
2023/02/15 10:21:09;;;;;;;12.30;9.65;;;14.90;51.20;;;5.37;70.70;96714.19;4993399;28;20108;-48
2023/02/15 10:24:51;;;;;;;15.25;10.23;;;15.00;50.70;;;5.38;70.44;96713.16;4997607;28;20034;-48
2023/02/15 10:27:21;;;;;;;14.00;9.80;;;15.10;50.20;;;5.58;70.19;96706.03;4985620;28;20116;-48
2023/02/15 10:30:14;;;;;;;14.88;9.10;;;15.10;49.90;;;6.16;68.92;96695.53;4993087;28;20045;-47
2023/02/15 10:33:11;;;;;;;11.80;9.73;;;15.30;49.50;;;6.08;67.95;96706.38;4981109;28;20036;-47
2023/02/15 10:36:04;;;;;;;14.23;9.88;;;15.50;49.40;;;6.29;67.35;96697.31;4987637;28;20056;-54
2023/02/15 10:39:28;;;;;;;13.82;9.45;;;15.70;49.00;;;6.46;67.23;96695.03;5004836;28;20025;-52
2023/02/15 10:42:34;;;;;;;11.60;9.63;;;15.90;48.80;;;7.17;66.17;96688.66;4988578;28;20057;-49
2023/02/15 10:45:48;;;;;;;12.80;9.85;;;16.20;48.50;;;7.61;63.72;96679.69;5006641;28;20045;-52
2023/02/15 10:49:05;;;;;;;;;;;16.50;48.20;;;8.09;62.34;96683.50;5004342;28;20027;-53
2023/02/15 10:52:17;;;;;;;13.93;9.70;;;16.90;49.10;;;8.38;59.98;96673.16;4974411;28;19909;-55
2023/02/15 10:55:39;;;;;;;12.10;8.68;;;17.30;48.00;;;8.69;58.63;96669.50;5004969;28;20021;-50
2023/02/15 10:58:47;;;;;;;11.45;8.73;;;17.70;47.40;;;9.10;56.79;96670.53;4947372;28;20030;-49
2023/02/15 11:01:31;;;;;;;11.40;8.38;;;18.10;46.70;;;9.46;57.76;96665.06;4994799;28;20397;-52
2023/02/15 11:04:52;;;;;;;13.40;10.20;;;18.50;46.10;;;9.54;56.13;96657.75;4953580;28;20420;-58
2023/02/15 11:07:37;;;;;;;12.52;9.38;;;18.80;45.40;;;9.82;56.58;96657.03;5002788;28;20353;-54
2023/02/15 11:10:58;;;;;;;12.38;9.93;;;19.10;44.70;;;9.91;55.50;96648.47;4991938;28;20474;-55
2023/02/15 11:13:38;;;;;;;12.13;9.27;;;19.40;44.30;;;10.24;53.78;96644.34;4995491;28;20396;-54
2023/02/15 11:16:30;;;;;;;13.98;8.93;;;19.70;43.60;;;10.63;53.76;96633.94;4991915;28;20021;-55